sensor_id;sensor_type;location;lat;lon;timestamp;pressure;altitude;pressure_sealevel;temperature;humidity
39295;BME280;52361;52.100;5.248;2023-04-06T00:02:35;101743.0;;;4.88;92.36
39295;BME280;52361;52.100;5.248;2023-04-06T00:04:11;101743.0;;;4.8;92.02
39295;BME280;52361;52.100;5.248;2023-04-06T00:05:47;101739.0;;;5.03;89.53
39295;BME280;52361;52.100;5.248;2023-04-06T00:09:01;101742.0;;;5.03;89.58
39295;BME280;52361;52.100;5.248;2023-04-06T00:10:37;101737.0;;;5.17;89.25
39295;BME280;52361;52.100;5.248;2023-04-06T00:12:13;101735.0;;;5.41;84.12
39295;BME280;52361;52.100;5.248;2023-04-06T00:15:26;101733.0;;;5.48;84.23
39295;BME280;52361;52.100;5.248;2023-04-06T00:17:02;101733.0;;;5.47;82.25
39295;BME280;52361;52.100;5.248;2023-04-06T00:18:39;101732.0;;;5.65;82.17
39295;BME280;52361;52.100;5.248;2023-04-06T00:21:52;101728.0;;;5.7;79.37
39295;BME280;52361;52.100;5.248;2023-04-06T00:23:28;101727.0;;;5.8;76.95
39295;BME280;52361;52.100;5.248;2023-04-06T00:25:05;101728.0;;;5.89;76.03
39295;BME280;52361;52.100;5.248;2023-04-06T00:26:41;101724.0;;;5.87;75.66
39295;BME280;52361;52.100;5.248;2023-04-06T00:29:53;101723.0;;;6.05;72.67
39295;BME280;52361;52.100;5.248;2023-04-06T00:31:30;101721.0;;;6.07;71.94
39295;BME280;52361;52.100;5.248;2023-04-06T00:33:06;101721.0;;;5.99;74.55
39295;BME280;52361;52.100;5.248;2023-04-06T00:36:18;101714.0;;;6.18;72.42
39295;BME280;52361;52.100;5.248;2023-04-06T00:37:54;101715.0;;;6.1;72.56
39295;BME280;52361;52.100;5.248;2023-04-06T00:39:30;101713.0;;;6.06;72.19
39295;BME280;52361;52.100;5.248;2023-04-06T00:42:43;101711.0;;;6.06;72.86
39295;BME280;52361;52.100;5.248;2023-04-06T00:44:19;101709.0;;;6.15;73.12
39295;BME280;52361;52.100;5.248;2023-04-06T00:45:56;101707.0;;;6.07;72.56
39295;BME280;52361;52.100;5.248;2023-04-06T00:47:32;101702.0;;;6.13;71.61
39295;BME280;52361;52.100;5.248;2023-04-06T00:50:45;101699.0;;;6.19;71.08
39295;BME280;52361;52.100;5.248;2023-04-06T00:52:21;101694.0;;;6.14;71.66
39295;BME280;52361;52.100;5.248;2023-04-06T00:53:58;101693.0;;;6.11;71.09
39295;BME280;52361;52.100;5.248;2023-04-06T00:57:11;101693.0;;;6.05;74.78
39295;BME280;52361;52.100;5.248;2023-04-06T00:58:48;101695.0;;;6.21;74.69
39295;BME280;52361;52.100;5.248;2023-04-06T01:00:24;101693.0;;;6.27;70.41
39295;BME280;52361;52.100;5.248;2023-04-06T01:03:36;101689.0;;;6.13;70.81
39295;BME280;52361;52.100;5.248;2023-04-06T01:05:12;101691.0;;;6.11;72.16
39295;BME280;52361;52.100;5.248;2023-04-06T01:06:49;101684.0;;;6.25;70.12
39295;BME280;52361;52.100;5.248;2023-04-06T01:08:25;101680.0;;;6.31;70.2
39295;BME280;52361;52.100;5.248;2023-04-06T01:11:40;101680.0;;;6.43;68.66
39295;BME280;52361;52.100;5.248;2023-04-06T01:13:16;101670.0;;;6.4;69.36
39295;BME280;52361;52.100;5.248;2023-04-06T01:14:52;101670.0;;;6.41;68.8
39295;BME280;52361;52.100;5.248;2023-04-06T01:18:04;101673.0;;;6.42;68.2
39295;BME280;52361;52.100;5.248;2023-04-06T01:19:41;101666.0;;;6.33;67.52
39295;BME280;52361;52.100;5.248;2023-04-06T01:21:17;101667.0;;;6.41;68.02
39295;BME280;52361;52.100;5.248;2023-04-06T01:24:29;101667.0;;;6.58;67.24
39295;BME280;52361;52.100;5.248;2023-04-06T01:26:05;101666.0;;;6.46;67.94
39295;BME280;52361;52.100;5.248;2023-04-06T01:27:41;101668.0;;;6.56;67.13
39295;BME280;52361;52.100;5.248;2023-04-06T01:30:53;101661.0;;;6.53;67.56
39295;BME280;52361;52.100;5.248;2023-04-06T01:32:30;101656.0;;;6.62;66.67
39295;BME280;52361;52.100;5.248;2023-04-06T01:34:06;101651.0;;;6.68;65.83
39295;BME280;52361;52.100;5.248;2023-04-06T01:35:42;101653.0;;;6.61;67.1
39295;BME280;52361;52.100;5.248;2023-04-06T01:38:54;101648.0;;;6.69;65.41
39295;BME280;52361;52.100;5.248;2023-04-06T01:40:30;101643.0;;;6.74;65.03
39295;BME280;52361;52.100;5.248;2023-04-06T01:42:06;101641.0;;;6.8;65.83
39295;BME280;52361;52.100;5.248;2023-04-06T01:45:19;101640.0;;;6.64;65.39
39295;BME280;52361;52.100;5.248;2023-04-06T01:46:55;101640.0;;;6.83;64.91
39295;BME280;52361;52.100;5.248;2023-04-06T01:48:31;101638.0;;;6.79;65.92
39295;BME280;52361;52.100;5.248;2023-04-06T01:51:43;101640.0;;;6.7;65.35
39295;BME280;52361;52.100;5.248;2023-04-06T01:53:20;101632.0;;;6.78;65.23
39295;BME280;52361;52.100;5.248;2023-04-06T01:54:56;101628.0;;;6.77;65.67
39295;BME280;52361;52.100;5.248;2023-04-06T01:56:32;101630.0;;;6.81;64.41
39295;BME280;52361;52.100;5.248;2023-04-06T01:59:44;101631.0;;;6.85;64.59
39295;BME280;52361;52.100;5.248;2023-04-06T02:01:20;101623.0;;;6.85;64.81
39295;BME280;52361;52.100;5.248;2023-04-06T02:02:56;101623.0;;;6.92;64.55
39295;BME280;52361;52.100;5.248;2023-04-06T02:06:09;101617.0;;;6.97;63.1
39295;BME280;52361;52.100;5.248;2023-04-06T02:07:45;101617.0;;;6.96;63.66
39295;BME280;52361;52.100;5.248;2023-04-06T02:09:21;101615.0;;;6.85;64.25
39295;BME280;52361;52.100;5.248;2023-04-06T02:12:33;101612.0;;;6.96;63.24
39295;BME280;52361;52.100;5.248;2023-04-06T02:14:09;101603.0;;;6.94;62.88
39295;BME280;52361;52.100;5.248;2023-04-06T02:15:45;101606.0;;;6.97;63.83
39295;BME280;52361;52.100;5.248;2023-04-06T02:18:58;101602.0;;;7.04;62.45
39295;BME280;52361;52.100;5.248;2023-04-06T02:20:34;101598.0;;;7.08;64.02
39295;BME280;52361;52.100;5.248;2023-04-06T02:22:10;101600.0;;;7.03;62.27
39295;BME280;52361;52.100;5.248;2023-04-06T02:23:46;101596.0;;;6.95;62.67
39295;BME280;52361;52.100;5.248;2023-04-06T02:26:58;101597.0;;;7.11;61.91
39295;BME280;52361;52.100;5.248;2023-04-06T02:28:36;101596.0;;;7.19;61.35
39295;BME280;52361;52.100;5.248;2023-04-06T02:30:12;101591.0;;;7.22;60.81
39295;BME280;52361;52.100;5.248;2023-04-06T02:33:24;101589.0;;;7.28;60.1
39295;BME280;52361;52.100;5.248;2023-04-06T02:35:00;101588.0;;;7.3;59.96
39295;BME280;52361;52.100;5.248;2023-04-06T02:36:37;101587.0;;;7.28;60.38
39295;BME280;52361;52.100;5.248;2023-04-06T02:39:50;101582.0;;;7.24;60.25
39295;BME280;52361;52.100;5.248;2023-04-06T02:41:26;101581.0;;;7.35;60.54
39295;BME280;52361;52.100;5.248;2023-04-06T02:43:02;101580.0;;;7.21;59.99
39295;BME280;52361;52.100;5.248;2023-04-06T02:44:38;101581.0;;;7.19;60.22
39295;BME280;52361;52.100;5.248;2023-04-06T02:47:50;101572.0;;;7.31;59.96
39295;BME280;52361;52.100;5.248;2023-04-06T02:49:26;101576.0;;;7.03;59.84
39295;BME280;52361;52.100;5.248;2023-04-06T02:51:03;101571.0;;;7.14;59.76
39295;BME280;52361;52.100;5.248;2023-04-06T02:54:15;101571.0;;;7.31;60.4
39295;BME280;52361;52.100;5.248;2023-04-06T02:55:51;101564.0;;;7.16;59.34
39295;BME280;52361;52.100;5.248;2023-04-06T02:57:27;101563.0;;;7.28;59.47
39295;BME280;52361;52.100;5.248;2023-04-06T03:00:39;101566.0;;;7.27;59.51
39295;BME280;52361;52.100;5.248;2023-04-06T03:02:16;101557.0;;;7.39;59.19
39295;BME280;52361;52.100;5.248;2023-04-06T03:03:52;101555.0;;;7.29;60.3
39295;BME280;52361;52.100;5.248;2023-04-06T03:07:04;101552.0;;;7.32;59.51
39295;BME280;52361;52.100;5.248;2023-04-06T03:08:40;101555.0;;;7.43;60.31
39295;BME280;52361;52.100;5.248;2023-04-06T03:10:16;101551.0;;;7.35;59.5
39295;BME280;52361;52.100;5.248;2023-04-06T03:11:52;101545.0;;;7.44;59.71
39295;BME280;52361;52.100;5.248;2023-04-06T03:15:05;101546.0;;;7.39;59.57
39295;BME280;52361;52.100;5.248;2023-04-06T03:16:42;101550.0;;;7.4;60.91
39295;BME280;52361;52.100;5.248;2023-04-06T03:18:21;101543.0;;;7.43;60.38
39295;BME280;52361;52.100;5.248;2023-04-06T03:21:33;101543.0;;;7.44;59.61
39295;BME280;52361;52.100;5.248;2023-04-06T03:23:09;101540.0;;;7.42;59.66
39295;BME280;52361;52.100;5.248;2023-04-06T03:24:46;101545.0;;;7.36;59.96
39295;BME280;52361;52.100;5.248;2023-04-06T03:27:58;101532.0;;;7.37;60.15
39295;BME280;52361;52.100;5.248;2023-04-06T03:29:34;101544.0;;;7.38;60.0
39295;BME280;52361;52.100;5.248;2023-04-06T03:31:10;101533.0;;;7.19;60.49
39295;BME280;52361;52.100;5.248;2023-04-06T03:35:59;101533.0;;;7.39;60.06
39295;BME280;52361;52.100;5.248;2023-04-06T03:37:35;101534.0;;;7.41;59.96
39295;BME280;52361;52.100;5.248;2023-04-06T03:39:12;101531.0;;;7.45;59.81
39295;BME280;52361;52.100;5.248;2023-04-06T03:42:24;101534.0;;;7.47;60.31
39295;BME280;52361;52.100;5.248;2023-04-06T03:44:00;101530.0;;;7.39;60.26
39295;BME280;52361;52.100;5.248;2023-04-06T03:45:36;101531.0;;;7.41;60.78
39295;BME280;52361;52.100;5.248;2023-04-06T03:48:49;101530.0;;;7.39;60.41
39295;BME280;52361;52.100;5.248;2023-04-06T03:50:25;101527.0;;;7.28;60.4
39295;BME280;52361;52.100;5.248;2023-04-06T03:52:01;101525.0;;;7.17;61.2
39295;BME280;52361;52.100;5.248;2023-04-06T03:55:13;101527.0;;;7.14;62.25
39295;BME280;52361;52.100;5.248;2023-04-06T03:56:49;101523.0;;;7.11;61.58
39295;BME280;52361;52.100;5.248;2023-04-06T03:58:25;101522.0;;;7.27;61.56
39295;BME280;52361;52.100;5.248;2023-04-06T04:00:01;101521.0;;;7.35;61.51
39295;BME280;52361;52.100;5.248;2023-04-06T04:03:13;101518.0;;;7.35;61.35
39295;BME280;52361;52.100;5.248;2023-04-06T04:04:49;101517.0;;;7.17;62.27
39295;BME280;52361;52.100;5.248;2023-04-06T04:06:25;101520.0;;;7.2;61.89
39295;BME280;52361;52.100;5.248;2023-04-06T04:09:38;101519.0;;;7.15;62.0
39295;BME280;52361;52.100;5.248;2023-04-06T04:11:14;101518.0;;;7.15;62.58
39295;BME280;52361;52.100;5.248;2023-04-06T04:12:50;101520.0;;;7.12;62.21
39295;BME280;52361;52.100;5.248;2023-04-06T04:16:02;101520.0;;;7.08;62.32
39295;BME280;52361;52.100;5.248;2023-04-06T04:17:39;101520.0;;;7.03;62.43
39295;BME280;52361;52.100;5.248;2023-04-06T04:19:15;101523.0;;;7.03;62.77
39295;BME280;52361;52.100;5.248;2023-04-06T04:20:51;101521.0;;;6.97;62.85
39295;BME280;52361;52.100;5.248;2023-04-06T04:24:04;101521.0;;;6.96;62.93
39295;BME280;52361;52.100;5.248;2023-04-06T04:25:41;101518.0;;;6.91;64.1
39295;BME280;52361;52.100;5.248;2023-04-06T04:32:14;101518.0;;;7.04;63.96
39295;BME280;52361;52.100;5.248;2023-04-06T04:33:51;101517.0;;;6.99;63.98
39295;BME280;52361;52.100;5.248;2023-04-06T04:37:03;101523.0;;;7.03;63.33
39295;BME280;52361;52.100;5.248;2023-04-06T04:38:39;101515.0;;;6.93;63.59
39295;BME280;52361;52.100;5.248;2023-04-06T04:40:15;101515.0;;;7.0;64.08
39295;BME280;52361;52.100;5.248;2023-04-06T04:41:52;101515.0;;;7.02;63.7
39295;BME280;52361;52.100;5.248;2023-04-06T04:45:05;101516.0;;;7.08;63.71
39295;BME280;52361;52.100;5.248;2023-04-06T04:46:41;101513.0;;;7.15;63.53
39295;BME280;52361;52.100;5.248;2023-04-06T04:48:18;101513.0;;;6.99;63.79
39295;BME280;52361;52.100;5.248;2023-04-06T04:51:30;101513.0;;;7.03;63.84
39295;BME280;52361;52.100;5.248;2023-04-06T04:53:07;101512.0;;;7.05;64.41
39295;BME280;52361;52.100;5.248;2023-04-06T04:54:43;101508.0;;;6.96;64.88
39295;BME280;52361;52.100;5.248;2023-04-06T04:57:55;101505.0;;;6.84;65.14
39295;BME280;52361;52.100;5.248;2023-04-06T04:59:34;101503.0;;;7.14;64.33
39295;BME280;52361;52.100;5.248;2023-04-06T05:01:11;101502.0;;;6.96;64.05
39295;BME280;52361;52.100;5.248;2023-04-06T05:02:47;101501.0;;;7.05;63.67
39295;BME280;52361;52.100;5.248;2023-04-06T05:05:59;101503.0;;;7.18;64.69
39295;BME280;52361;52.100;5.248;2023-04-06T05:07:36;101496.0;;;7.21;63.5
39295;BME280;52361;52.100;5.248;2023-04-06T05:09:13;101499.0;;;7.18;63.5
39295;BME280;52361;52.100;5.248;2023-04-06T05:12:26;101501.0;;;7.26;63.76
39295;BME280;52361;52.100;5.248;2023-04-06T05:14:02;101497.0;;;7.23;63.27
39295;BME280;52361;52.100;5.248;2023-04-06T05:15:39;101491.0;;;7.31;63.16
39295;BME280;52361;52.100;5.248;2023-04-06T05:18:52;101496.0;;;7.39;62.91
39295;BME280;52361;52.100;5.248;2023-04-06T05:20:28;101497.0;;;7.48;63.54
39295;BME280;52361;52.100;5.248;2023-04-06T05:22:05;101496.0;;;7.45;62.82
39295;BME280;52361;52.100;5.248;2023-04-06T05:23:41;101499.0;;;7.55;63.14
39295;BME280;52361;52.100;5.248;2023-04-06T05:26:55;101497.0;;;7.42;63.04
39295;BME280;52361;52.100;5.248;2023-04-06T05:28:32;101494.0;;;7.44;63.45
39295;BME280;52361;52.100;5.248;2023-04-06T05:30:08;101497.0;;;7.48;63.42
39295;BME280;52361;52.100;5.248;2023-04-06T05:33:22;101493.0;;;7.52;63.66
39295;BME280;52361;52.100;5.248;2023-04-06T05:34:59;101499.0;;;7.7;63.21
39295;BME280;52361;52.100;5.248;2023-04-06T05:39:48;101496.0;;;7.67;63.48
39295;BME280;52361;52.100;5.248;2023-04-06T05:41:24;101495.0;;;7.62;63.02
39295;BME280;52361;52.100;5.248;2023-04-06T05:43:01;101492.0;;;7.72;63.23
39295;BME280;52361;52.100;5.248;2023-04-06T05:44:38;101495.0;;;7.76;63.24
39295;BME280;52361;52.100;5.248;2023-04-06T05:47:51;101491.0;;;7.91;63.3
39295;BME280;52361;52.100;5.248;2023-04-06T05:49:27;101489.0;;;7.94;62.32
39295;BME280;52361;52.100;5.248;2023-04-06T05:51:03;101490.0;;;7.84;63.7
39295;BME280;52361;52.100;5.248;2023-04-06T05:54:17;101493.0;;;7.86;63.84
39295;BME280;52361;52.100;5.248;2023-04-06T05:55:53;101496.0;;;7.84;65.34
39295;BME280;52361;52.100;5.248;2023-04-06T05:57:29;101495.0;;;7.72;65.66
39295;BME280;52361;52.100;5.248;2023-04-06T06:00:43;101496.0;;;7.7;66.38
39295;BME280;52361;52.100;5.248;2023-04-06T06:02:19;101498.0;;;7.9;63.83
39295;BME280;52361;52.100;5.248;2023-04-06T06:03:57;101493.0;;;7.88;63.33
39295;BME280;52361;52.100;5.248;2023-04-06T06:05:33;101494.0;;;8.03;62.63
39295;BME280;52361;52.100;5.248;2023-04-06T06:08:46;101495.0;;;8.09;62.73
39295;BME280;52361;52.100;5.248;2023-04-06T06:10:23;101491.0;;;8.09;62.48
39295;BME280;52361;52.100;5.248;2023-04-06T06:11:59;101496.0;;;8.2;62.06
39295;BME280;52361;52.100;5.248;2023-04-06T06:15:12;101497.0;;;8.05;62.07
39295;BME280;52361;52.100;5.248;2023-04-06T06:16:48;101491.0;;;8.22;62.41
39295;BME280;52361;52.100;5.248;2023-04-06T06:18:24;101490.0;;;8.14;61.89
39295;BME280;52361;52.100;5.248;2023-04-06T06:21:36;101491.0;;;8.09;63.06
39295;BME280;52361;52.100;5.248;2023-04-06T06:23:13;101496.0;;;8.3;62.73
39295;BME280;52361;52.100;5.248;2023-04-06T06:24:50;101492.0;;;8.31;63.17
39295;BME280;52361;52.100;5.248;2023-04-06T06:26:26;101493.0;;;8.43;62.04
39295;BME280;52361;52.100;5.248;2023-04-06T06:29:38;101497.0;;;8.39;61.54
39295;BME280;52361;52.100;5.248;2023-04-06T06:31:15;101495.0;;;8.51;62.3
39295;BME280;52361;52.100;5.248;2023-04-06T06:32:51;101496.0;;;8.6;62.1
39295;BME280;52361;52.100;5.248;2023-04-06T06:36:04;101492.0;;;8.6;62.2
39295;BME280;52361;52.100;5.248;2023-04-06T06:37:40;101496.0;;;8.76;61.96
39295;BME280;52361;52.100;5.248;2023-04-06T06:39:16;101497.0;;;8.81;62.31
39295;BME280;52361;52.100;5.248;2023-04-06T06:42:28;101497.0;;;8.84;61.82
39295;BME280;52361;52.100;5.248;2023-04-06T06:44:04;101495.0;;;8.93;60.93
39295;BME280;52361;52.100;5.248;2023-04-06T06:45:41;101495.0;;;9.05;60.4
39295;BME280;52361;52.100;5.248;2023-04-06T06:47:18;101493.0;;;9.16;60.92
39295;BME280;52361;52.100;5.248;2023-04-06T06:50:30;101495.0;;;9.26;60.51
39295;BME280;52361;52.100;5.248;2023-04-06T06:52:06;101494.0;;;9.27;59.51
39295;BME280;52361;52.100;5.248;2023-04-06T06:53:42;101495.0;;;9.25;60.17
39295;BME280;52361;52.100;5.248;2023-04-06T06:56:54;101494.0;;;9.27;60.77
39295;BME280;52361;52.100;5.248;2023-04-06T06:58:31;101491.0;;;9.25;59.85
39295;BME280;52361;52.100;5.248;2023-04-06T07:00:08;101483.0;;;9.17;59.7
39295;BME280;52361;52.100;5.248;2023-04-06T07:03:21;101486.0;;;9.22;59.84
39295;BME280;52361;52.100;5.248;2023-04-06T07:04:57;101483.0;;;8.98;60.87
39295;BME280;52361;52.100;5.248;2023-04-06T07:06:34;101478.0;;;8.99;60.75
39295;BME280;52361;52.100;5.248;2023-04-06T07:09:47;101476.0;;;9.14;61.66
39295;BME280;52361;52.100;5.248;2023-04-06T07:11:24;101473.0;;;9.25;61.67
39295;BME280;52361;52.100;5.248;2023-04-06T07:13:00;101472.0;;;9.23;61.8
39295;BME280;52361;52.100;5.248;2023-04-06T07:14:36;101466.0;;;9.02;61.37
39295;BME280;52361;52.100;5.248;2023-04-06T07:17:48;101473.0;;;9.21;61.34
39295;BME280;52361;52.100;5.248;2023-04-06T07:19:24;101462.0;;;9.23;61.18
39295;BME280;52361;52.100;5.248;2023-04-06T07:21:00;101468.0;;;9.19;61.18
39295;BME280;52361;52.100;5.248;2023-04-06T07:24:14;101468.0;;;9.13;61.4
39295;BME280;52361;52.100;5.248;2023-04-06T07:25:50;101467.0;;;9.07;61.79
39295;BME280;52361;52.100;5.248;2023-04-06T07:27:26;101463.0;;;9.15;62.14
39295;BME280;52361;52.100;5.248;2023-04-06T07:30:40;101461.0;;;9.31;61.45
39295;BME280;52361;52.100;5.248;2023-04-06T07:32:16;101463.0;;;9.23;61.16
39295;BME280;52361;52.100;5.248;2023-04-06T07:33:52;101465.0;;;9.23;61.25
39295;BME280;52361;52.100;5.248;2023-04-06T07:35:28;101465.0;;;9.34;62.03
39295;BME280;52361;52.100;5.248;2023-04-06T07:38:40;101464.0;;;9.22;61.68
39295;BME280;52361;52.100;5.248;2023-04-06T07:40:16;101465.0;;;9.22;62.56
39295;BME280;52361;52.100;5.248;2023-04-06T07:41:52;101467.0;;;9.44;61.95
39295;BME280;52361;52.100;5.248;2023-04-06T07:45:05;101472.0;;;9.53;62.99
39295;BME280;52361;52.100;5.248;2023-04-06T07:46:42;101470.0;;;9.64;61.33
39295;BME280;52361;52.100;5.248;2023-04-06T07:48:18;101471.0;;;9.68;62.15
39295;BME280;52361;52.100;5.248;2023-04-06T07:51:30;101467.0;;;9.63;61.35
39295;BME280;52361;52.100;5.248;2023-04-06T07:53:06;101474.0;;;9.57;60.59
39295;BME280;52361;52.100;5.248;2023-04-06T07:54:44;101475.0;;;9.55;61.15
39295;BME280;52361;52.100;5.248;2023-04-06T07:56:20;101469.0;;;9.61;61.09
39295;BME280;52361;52.100;5.248;2023-04-06T07:59:33;101472.0;;;9.77;61.0
39295;BME280;52361;52.100;5.248;2023-04-06T08:01:09;101468.0;;;9.71;61.7
39295;BME280;52361;52.100;5.248;2023-04-06T08:02:45;101468.0;;;9.73;60.79
39295;BME280;52361;52.100;5.248;2023-04-06T08:05:57;101473.0;;;9.83;61.41
39295;BME280;52361;52.100;5.248;2023-04-06T08:07:34;101473.0;;;9.85;60.29
39295;BME280;52361;52.100;5.248;2023-04-06T08:09:09;101467.0;;;9.98;60.14
39295;BME280;52361;52.100;5.248;2023-04-06T08:12:21;101466.0;;;9.88;60.45
39295;BME280;52361;52.100;5.248;2023-04-06T08:13:57;101466.0;;;9.98;60.2
39295;BME280;52361;52.100;5.248;2023-04-06T08:15:33;101464.0;;;10.0;60.38
39295;BME280;52361;52.100;5.248;2023-04-06T08:18:45;101459.0;;;9.98;60.01
39295;BME280;52361;52.100;5.248;2023-04-06T08:20:22;101462.0;;;10.16;61.09
39295;BME280;52361;52.100;5.248;2023-04-06T08:21:58;101461.0;;;10.27;60.68
39295;BME280;52361;52.100;5.248;2023-04-06T08:23:34;101466.0;;;10.15;60.08
39295;BME280;52361;52.100;5.248;2023-04-06T08:26:46;101464.0;;;10.54;61.01
39295;BME280;52361;52.100;5.248;2023-04-06T08:28:21;101458.0;;;10.64;59.93
39295;BME280;52361;52.100;5.248;2023-04-06T08:29:57;101456.0;;;10.72;59.16
39295;BME280;52361;52.100;5.248;2023-04-06T08:33:10;101459.0;;;10.79;58.7
39295;BME280;52361;52.100;5.248;2023-04-06T08:34:46;101457.0;;;10.85;58.91
39295;BME280;52361;52.100;5.248;2023-04-06T08:36:22;101461.0;;;10.84;58.64
39295;BME280;52361;52.100;5.248;2023-04-06T08:39:34;101466.0;;;10.7;59.61
39295;BME280;52361;52.100;5.248;2023-04-06T08:41:11;101464.0;;;10.82;59.39
39295;BME280;52361;52.100;5.248;2023-04-06T08:42:50;101464.0;;;10.64;59.52
39295;BME280;52361;52.100;5.248;2023-04-06T08:44:31;101460.0;;;10.53;60.55
39295;BME280;52361;52.100;5.248;2023-04-06T08:47:44;101460.0;;;10.9;59.99
39295;BME280;52361;52.100;5.248;2023-04-06T08:49:22;101466.0;;;10.97;61.05
39295;BME280;52361;52.100;5.248;2023-04-06T08:50:58;101461.0;;;10.82;60.29
39295;BME280;52361;52.100;5.248;2023-04-06T08:54:13;101456.0;;;10.85;61.51
39295;BME280;52361;52.100;5.248;2023-04-06T08:55:49;101461.0;;;10.95;61.9
39295;BME280;52361;52.100;5.248;2023-04-06T08:57:26;101459.0;;;11.05;61.61
39295;BME280;52361;52.100;5.248;2023-04-06T09:00:40;101467.0;;;11.08;61.3
39295;BME280;52361;52.100;5.248;2023-04-06T09:02:18;101462.0;;;11.05;60.89
39295;BME280;52361;52.100;5.248;2023-04-06T09:03:56;101462.0;;;11.11;61.15
39295;BME280;52361;52.100;5.248;2023-04-06T09:05:34;101473.0;;;11.19;61.76
39295;BME280;52361;52.100;5.248;2023-04-06T09:08:47;101473.0;;;11.04;62.3
39295;BME280;52361;52.100;5.248;2023-04-06T09:10:23;101471.0;;;11.01;61.87
39295;BME280;52361;52.100;5.248;2023-04-06T09:11:59;101473.0;;;11.1;62.74
39295;BME280;52361;52.100;5.248;2023-04-06T09:15:22;101473.0;;;10.99;62.77
39295;BME280;52361;52.100;5.248;2023-04-06T09:16:58;101471.0;;;11.02;63.08
39295;BME280;52361;52.100;5.248;2023-04-06T09:18:34;101482.0;;;11.06;63.99
39295;BME280;52361;52.100;5.248;2023-04-06T09:20:11;101480.0;;;11.0;63.15
39295;BME280;52361;52.100;5.248;2023-04-06T09:23:23;101480.0;;;11.01;63.42
39295;BME280;52361;52.100;5.248;2023-04-06T09:24:59;101485.0;;;11.07;64.11
39295;BME280;52361;52.100;5.248;2023-04-06T09:26:50;101480.0;;;10.89;64.3
39295;BME280;52361;52.100;5.248;2023-04-06T09:28:26;101481.0;;;10.93;65.41
39295;BME280;52361;52.100;5.248;2023-04-06T09:31:41;101476.0;;;10.88;65.49
39295;BME280;52361;52.100;5.248;2023-04-06T09:33:22;101475.0;;;11.02;67.16
39295;BME280;52361;52.100;5.248;2023-04-06T09:35:07;101480.0;;;10.99;66.83
39295;BME280;52361;52.100;5.248;2023-04-06T09:38:19;101473.0;;;10.98;67.55
39295;BME280;52361;52.100;5.248;2023-04-06T09:40:02;101480.0;;;10.93;67.0
39295;BME280;52361;52.100;5.248;2023-04-06T09:41:40;101480.0;;;10.89;69.72
39295;BME280;52361;52.100;5.248;2023-04-06T09:46:37;101481.0;;;10.8;69.62
39295;BME280;52361;52.100;5.248;2023-04-06T09:48:15;101478.0;;;10.84;69.61
39295;BME280;52361;52.100;5.248;2023-04-06T09:49:55;101471.0;;;10.87;69.69
39295;BME280;52361;52.100;5.248;2023-04-06T09:51:36;101473.0;;;10.93;70.56
39295;BME280;52361;52.100;5.248;2023-04-06T09:54:59;101470.0;;;10.94;69.91
39295;BME280;52361;52.100;5.248;2023-04-06T09:56:45;101471.0;;;11.01;68.67
39295;BME280;52361;52.100;5.248;2023-04-06T09:58:22;101469.0;;;10.94;69.98
39295;BME280;52361;52.100;5.248;2023-04-06T10:00:03;101472.0;;;11.14;70.62
39295;BME280;52361;52.100;5.248;2023-04-06T10:03:21;101470.0;;;11.25;71.34
39295;BME280;52361;52.100;5.248;2023-04-06T10:05:09;101475.0;;;11.25;70.41
39295;BME280;52361;52.100;5.248;2023-04-06T10:06:48;101475.0;;;11.34;69.86
39295;BME280;52361;52.100;5.248;2023-04-06T10:08:27;101480.0;;;11.44;70.2
39295;BME280;52361;52.100;5.248;2023-04-06T10:11:41;101478.0;;;11.51;71.37
39295;BME280;52361;52.100;5.248;2023-04-06T10:13:19;101472.0;;;11.54;70.44
39295;BME280;52361;52.100;5.248;2023-04-06T10:14:56;101470.0;;;11.6;73.55
39295;BME280;52361;52.100;5.248;2023-04-06T10:16:32;101473.0;;;11.62;75.3
39295;BME280;52361;52.100;5.248;2023-04-06T10:19:49;101474.0;;;11.62;76.66
39295;BME280;52361;52.100;5.248;2023-04-06T10:21:40;101465.0;;;11.46;77.08
39295;BME280;52361;52.100;5.248;2023-04-06T10:23:23;101470.0;;;11.37;81.08
39295;BME280;52361;52.100;5.248;2023-04-06T10:25:07;101472.0;;;11.26;81.11
39295;BME280;52361;52.100;5.248;2023-04-06T10:28:35;101471.0;;;11.27;82.34
39295;BME280;52361;52.100;5.248;2023-04-06T10:30:15;101475.0;;;11.18;82.17
39295;BME280;52361;52.100;5.248;2023-04-06T10:31:51;101476.0;;;11.11;85.41
39295;BME280;52361;52.100;5.248;2023-04-06T10:33:28;101473.0;;;10.89;85.87
39295;BME280;52361;52.100;5.248;2023-04-06T10:36:43;101477.0;;;10.74;86.72
39295;BME280;52361;52.100;5.248;2023-04-06T10:38:19;101473.0;;;10.71;91.59
39295;BME280;52361;52.100;5.248;2023-04-06T10:39:56;101478.0;;;10.79;90.83
39295;BME280;52361;52.100;5.248;2023-04-06T10:43:11;101468.0;;;10.67;90.75
39295;BME280;52361;52.100;5.248;2023-04-06T10:44:49;101476.0;;;10.49;94.31
39295;BME280;52361;52.100;5.248;2023-04-06T10:46:27;101464.0;;;10.29;95.7
39295;BME280;52361;52.100;5.248;2023-04-06T10:48:20;101475.0;;;10.14;96.89
39295;BME280;52361;52.100;5.248;2023-04-06T10:51:33;101473.0;;;10.14;100.0
39295;BME280;52361;52.100;5.248;2023-04-06T10:53:20;101463.0;;;10.06;100.0
39295;BME280;52361;52.100;5.248;2023-04-06T10:54:58;101469.0;;;9.99;100.0
39295;BME280;52361;52.100;5.248;2023-04-06T10:56:36;101458.0;;;9.85;100.0
39295;BME280;52361;52.100;5.248;2023-04-06T10:59:53;101455.0;;;9.84;100.0
39295;BME280;52361;52.100;5.248;2023-04-06T11:01:28;101453.0;;;9.86;100.0
39295;BME280;52361;52.100;5.248;2023-04-06T11:03:04;101448.0;;;9.83;100.0
39295;BME280;52361;52.100;5.248;2023-04-06T11:04:41;101444.0;;;9.86;100.0
39295;BME280;52361;52.100;5.248;2023-04-06T11:07:56;101447.0;;;9.81;100.0
39295;BME280;52361;52.100;5.248;2023-04-06T11:09:31;101450.0;;;9.89;100.0
39295;BME280;52361;52.100;5.248;2023-04-06T11:11:09;101448.0;;;9.89;100.0
39295;BME280;52361;52.100;5.248;2023-04-06T11:14:28;101448.0;;;9.98;100.0
39295;BME280;52361;52.100;5.248;2023-04-06T11:16:04;101443.0;;;9.86;100.0
39295;BME280;52361;52.100;5.248;2023-04-06T11:17:40;101446.0;;;9.86;100.0
39295;BME280;52361;52.100;5.248;2023-04-06T11:19:16;101437.0;;;9.74;100.0
39295;BME280;52361;52.100;5.248;2023-04-06T11:22:30;101434.0;;;9.84;100.0
39295;BME280;52361;52.100;5.248;2023-04-06T11:25:50;101434.0;;;10.0;100.0